Accueil
METAR-TAF:

METAR-TAF

Aéroports :

Aéroport de Londres-City

Londres, Angleterre

latitude: 51-30N, longitude: 000-03E, altitude: 5 m

Observation

Le bulletin a été fait il y a 19 minutes, à 19:20 UTC
Vent 8 kt de nord-est, variant entre nord et est/sud-est
Température 5°C
Humidité 45%
Pression 1039 hPa
Visibilité 10 km ou plus
Nuages épars à une hauteur de 4800 ft

METAR: EGLC 291920Z AUTO 05008KT 350V120 9999 SCT048 05/M06 Q1039

Heure: 20:39 (19:39 UTC)


TAF: absent

Observations et prévisions météorologiques de plus de 4000 aéroports (messages METAR et TAF).

Les stations disponibles sont représentées par des disques jaunes et rouges sur la carte.

Passer la souris dessus pour voir le nom de la station.

Cliquer dessus pour voir les observations et prévisions météorologiques.

Pour changer de carte: cliquez sur les boutons verts avec une croix noire pour zoomer, sur le bouton vert avec un tiret pour effectuer un zoom arrière, ou sur les flèches vertes pour les cartes adjacentes.


METAR-TAF: